Airfield :
LOGIN :

Register | Disclaimer

   EN    FR    IT 

 










Legend :    VFR   Marginal VFR   IFR   Intensive IFR   Very Intensive IFR
Visi :
Ceiling :
>= 8 km
>= 3000ft
5 to 8 km
1000 to 3000 ft
1500m to 5 km
500 to 1000 ft
800 to 1500m
200 to 500 ft
< 800m
< 200 ft
Symbols :   Thunderstorms  Fog  Heavy snow  Heavy precipitations  Wind > 20 kt
SIGMETs :     Misc.  Thunderstorms  Icing  Turbulence  Mountain Waves  Volcanic Ashes







- Airport Elevation : 364 ft
- Download approach charts


LFAQ - Albert Bray

CURRENT METAR :
  • 210400Z AUTO 30005KT 4200 BR OVC047 16/15 Q1012

EXPIRED METARs :
  • 210330Z AUTO 32005KT 5000 BR FEW032 BKN040 OVC082 16/15 Q1012
  • 210300Z AUTO 35004KT 6000 FEW026 BKN046 OVC074 16/14 Q1012
  • 210230Z AUTO 04005KT 5000 BR FEW034/// OVC043/// ///TCU 16/15 Q1012
  • 210200Z AUTO 02005KT 4700 BR OVC042 16/15 Q1012
  • 210130Z AUTO 01004KT 4400 BR BKN042 OVC049 16/16 Q1012

Expired Forecast.
No reported NOTAMs for that airfield.



MET'MAP, your aeronautical weather chart ! - Copyright ORBIFLY December 2007 - Disclaimer

ORBIFLY MET'MAP TEAM :

Programming & Development : Alexandra Zaïnal
Concept & Development : Baudouin d'Aumeries
Co-Development & Prog : Marc-Olivier Méhu
Technical & hardware support : Manuel Goepfert

Contact : metmap@orbifly.com




SOURCES & CREDITS :

   NOAA